createdAt,value
2023-01-13T00:00:01.787Z,6.94
2023-01-13T00:02:33.784Z,6.97
2023-01-13T00:05:07.219Z,6.99
2023-01-13T00:07:36.970Z,6.98
2023-01-13T00:10:11.757Z,6.96
2023-01-13T00:12:44.348Z,6.96
2023-01-13T00:15:17.020Z,6.96
2023-01-13T00:17:48.503Z,6.96
2023-01-13T00:20:19.147Z,6.97
2023-01-13T00:22:49.949Z,6.98
2023-01-13T00:25:19.909Z,6.98
2023-01-13T00:27:51.636Z,6.98
2023-01-13T00:30:22.343Z,6.99
2023-01-13T00:32:54.637Z,6.99
2023-01-13T00:35:29.191Z,6.98
2023-01-13T00:38:00.374Z,6.98
2023-01-13T00:40:30.234Z,6.98
2023-01-13T00:43:25.878Z,7.00
2023-01-13T00:45:56.796Z,7.00
2023-01-13T00:48:28.469Z,7.00
2023-01-13T00:50:59.631Z,7.00
2023-01-13T00:53:32.003Z,6.99
2023-01-13T00:56:05.739Z,6.98
2023-01-13T00:58:36.826Z,6.96
2023-01-13T01:01:09.433Z,6.94
2023-01-13T01:03:38.587Z,6.89
2023-01-13T01:06:09.528Z,6.84
2023-01-13T01:08:39.457Z,6.76
2023-01-13T01:11:11.109Z,6.70
2023-01-13T01:13:41.370Z,6.65
2023-01-13T01:16:12.936Z,6.62
2023-01-13T01:18:43.188Z,6.59
2023-01-13T01:21:14.182Z,6.58
2023-01-13T01:23:44.444Z,6.55
2023-01-13T01:26:17.927Z,6.54
2023-01-13T01:28:50.266Z,6.54
2023-01-13T01:31:21.891Z,6.53
2023-01-13T01:33:51.865Z,6.52
2023-01-13T01:36:23.059Z,6.52
2023-01-13T01:38:54.071Z,6.51
2023-01-13T01:41:26.570Z,6.50
2023-01-13T01:44:01.751Z,6.50
2023-01-13T01:46:43.003Z,6.50
2023-01-13T01:49:29.908Z,6.50
2023-01-13T01:52:00.406Z,6.52
2023-01-13T01:54:36.031Z,6.55
2023-01-13T01:57:05.890Z,6.56
2023-01-13T01:59:36.829Z,6.57
2023-01-13T02:02:10.954Z,6.58
2023-01-13T02:04:41.175Z,6.59
2023-01-13T02:07:12.552Z,6.60
2023-01-13T02:09:41.608Z,6.61
2023-01-13T02:12:32.700Z,6.62
2023-01-13T02:15:10.372Z,6.63
2023-01-13T02:17:56.020Z,6.63
2023-01-13T02:20:40.885Z,6.62
2023-01-13T02:23:53.489Z,6.62
2023-01-13T02:26:28.044Z,6.62
2023-01-13T02:29:29.319Z,6.62
2023-01-13T02:32:02.851Z,6.62
2023-01-13T02:34:51.957Z,6.62
2023-01-13T02:37:29.872Z,6.62
2023-01-13T02:40:04.776Z,6.61
2023-01-13T02:42:54.814Z,6.61
2023-01-13T02:45:32.011Z,6.61
2023-01-13T02:48:07.554Z,6.60
2023-01-13T02:50:42.753Z,6.59
2023-01-13T02:53:15.290Z,6.59
2023-01-13T02:55:47.370Z,6.59
2023-01-13T02:58:24.028Z,6.58
2023-01-13T03:00:58.401Z,6.57
2023-01-13T03:03:28.554Z,6.57
2023-01-13T03:06:10.626Z,6.56
2023-01-13T03:08:47.904Z,6.55
2023-01-13T03:11:19.184Z,6.56
2023-01-13T03:14:07.908Z,6.57
2023-01-13T03:16:50.444Z,6.57
2023-01-13T03:19:38.468Z,6.56
2023-01-13T03:22:41.854Z,6.56
2023-01-13T03:25:15.952Z,6.56
2023-01-13T03:27:55.623Z,6.56
2023-01-13T03:30:33.117Z,6.57
2023-01-13T03:33:10.956Z,6.58
2023-01-13T03:35:42.808Z,6.59
2023-01-13T03:38:12.349Z,6.61
2023-01-13T03:40:46.980Z,6.61
2023-01-13T03:43:40.129Z,6.61
2023-01-13T03:46:14.405Z,6.62
2023-01-13T03:48:47.240Z,6.62
2023-01-13T03:51:21.180Z,6.63
2023-01-13T03:53:53.289Z,6.63
2023-01-13T03:56:27.304Z,6.64
2023-01-13T03:58:58.528Z,6.64
2023-01-13T04:01:58.540Z,6.65
2023-01-13T04:04:31.144Z,6.64
2023-01-13T04:07:15.209Z,6.64
2023-01-13T04:10:05.434Z,6.67
2023-01-13T04:13:03.630Z,6.68
2023-01-13T04:15:32.577Z,6.69
2023-01-13T04:18:06.036Z,6.72
2023-01-13T04:20:44.466Z,6.75
2023-01-13T04:23:17.028Z,6.76
2023-01-13T04:25:47.193Z,6.76
2023-01-13T04:28:19.228Z,6.76
2023-01-13T04:30:49.192Z,6.75
2023-01-13T04:33:22.866Z,6.74
2023-01-13T04:35:53.162Z,6.74
2023-01-13T04:38:24.989Z,6.73
2023-01-13T04:40:56.691Z,6.71
2023-01-13T04:43:26.574Z,6.69
2023-01-13T04:45:56.020Z,6.69
2023-01-13T04:48:30.409Z,6.68
2023-01-13T04:51:04.313Z,6.68
2023-01-13T04:53:36.246Z,6.67
2023-01-13T04:56:08.541Z,6.66
2023-01-13T04:58:39.742Z,6.66
2023-01-13T05:01:10.073Z,6.65
2023-01-13T05:03:41.433Z,6.66
2023-01-13T05:06:11.228Z,6.66
2023-01-13T05:08:44.818Z,6.66
2023-01-13T05:11:33.084Z,6.65
2023-01-13T05:14:22.430Z,6.65
2023-01-13T05:17:03.718Z,6.66
2023-01-13T05:19:34.953Z,6.67
2023-01-13T05:22:22.651Z,6.67
2023-01-13T05:25:11.355Z,6.69
2023-01-13T05:27:41.487Z,6.69
2023-01-13T05:30:12.326Z,6.68
2023-01-13T05:32:42.952Z,6.66
2023-01-13T05:35:16.529Z,6.68
2023-01-13T05:37:48.487Z,6.69
2023-01-13T05:40:37.977Z,6.70
2023-01-13T05:43:22.224Z,6.70
2023-01-13T05:45:54.799Z,6.71
2023-01-13T05:48:25.641Z,6.72
2023-01-13T05:50:58.481Z,6.72
2023-01-13T05:53:29.473Z,6.73
2023-01-13T05:55:59.728Z,6.75
2023-01-13T05:58:34.102Z,6.75
2023-01-13T06:01:06.760Z,6.76
2023-01-13T06:03:36.683Z,6.78
2023-01-13T06:06:09.990Z,6.82
2023-01-13T06:08:40.900Z,6.83
2023-01-13T06:11:30.391Z,6.84
2023-01-13T06:14:01.214Z,6.85
2023-01-13T06:16:32.218Z,6.85
2023-01-13T06:19:03.331Z,6.85
2023-01-13T06:21:33.387Z,6.86
2023-01-13T06:24:04.802Z,6.87
2023-01-13T06:26:40.611Z,6.89
2023-01-13T06:29:10.540Z,6.91
2023-01-13T06:31:41.412Z,6.92
2023-01-13T06:34:14.023Z,6.92
2023-01-13T06:36:46.919Z,6.92
2023-01-13T06:39:20.574Z,6.94
2023-01-13T06:42:10.498Z,6.96
2023-01-13T06:44:41.667Z,6.99
2023-01-13T06:47:13.161Z,7.02
2023-01-13T06:49:43.289Z,7.04
2023-01-13T06:52:14.959Z,7.05
2023-01-13T06:54:44.901Z,7.08
2023-01-13T06:57:17.575Z,7.09
2023-01-13T07:00:12.443Z,7.09
2023-01-13T07:02:47.929Z,7.09
2023-01-13T07:05:19.791Z,7.10
2023-01-13T07:07:49.584Z,7.10
2023-01-13T07:10:22.647Z,7.12
2023-01-13T07:13:11.552Z,7.14
2023-01-13T07:15:42.594Z,7.16
2023-01-13T07:18:14.642Z,7.18
2023-01-13T07:20:52.152Z,7.18
2023-01-13T07:23:22.963Z,7.20
2023-01-13T07:25:52.874Z,7.21
2023-01-13T07:28:24.332Z,7.22
2023-01-13T07:30:54.564Z,7.22
2023-01-13T07:33:24.330Z,7.22
2023-01-13T07:35:59.303Z,7.23
2023-01-13T07:38:30.728Z,7.24
2023-01-13T07:41:23.859Z,7.24
2023-01-13T07:43:53.976Z,7.24
2023-01-13T07:46:26.382Z,7.25
2023-01-13T07:48:59.908Z,7.24
2023-01-13T07:51:29.372Z,7.26
2023-01-13T07:53:58.959Z,7.27
2023-01-13T07:56:30.268Z,7.26
2023-01-13T07:59:06.552Z,7.27
2023-01-13T08:01:37.780Z,7.26
2023-01-13T08:04:07.644Z,7.27
2023-01-13T08:06:39.714Z,7.28
2023-01-13T08:09:10.502Z,7.30
2023-01-13T08:11:40.408Z,7.31
2023-01-13T08:14:11.724Z,7.32
2023-01-13T08:16:44.266Z,7.31
2023-01-13T08:19:13.419Z,7.31
2023-01-13T08:21:42.168Z,7.31
2023-01-13T08:24:13.471Z,7.31
2023-01-13T08:26:43.854Z,7.30
2023-01-13T08:29:15.067Z,7.30
2023-01-13T08:31:45.389Z,7.32
2023-01-13T08:34:14.438Z,7.33
2023-01-13T08:36:47.321Z,7.35
2023-01-13T08:39:16.897Z,7.37
2023-01-13T08:41:59.038Z,7.38
2023-01-13T08:44:30.279Z,7.40
2023-01-13T08:46:59.736Z,7.41
2023-01-13T08:49:31.795Z,7.42
2023-01-13T08:54:02.269Z,7.49
2023-01-13T08:56:35.575Z,7.49
2023-01-13T08:59:06.504Z,7.49
2023-01-13T09:01:39.757Z,7.48
2023-01-13T09:04:16.753Z,7.49
2023-01-13T09:06:48.639Z,7.48
2023-01-13T09:11:22.580Z,7.52
2023-01-13T09:13:52.479Z,7.50
2023-01-13T09:16:49.522Z,7.53
2023-01-13T09:19:21.208Z,7.51
2023-01-13T09:21:52.954Z,7.51
2023-01-13T09:24:26.078Z,7.49
2023-01-13T09:26:56.891Z,7.49
2023-01-13T09:29:28.496Z,7.49
2023-01-13T09:31:59.897Z,7.49
2023-01-13T09:34:48.249Z,7.51
2023-01-13T09:37:19.870Z,7.52
2023-01-13T09:39:52.730Z,7.52
2023-01-13T09:43:04.629Z,7.52
2023-01-13T09:46:36.793Z,7.50
2023-01-13T09:49:08.463Z,7.49
2023-01-13T09:51:46.769Z,7.49
2023-01-13T09:54:56.700Z,7.49
2023-01-13T09:57:32.052Z,7.49
2023-01-13T10:00:06.272Z,7.48
2023-01-13T10:02:59.665Z,7.48
2023-01-13T10:05:50.821Z,7.49
2023-01-13T10:08:48.126Z,7.50
2023-01-13T10:11:42.645Z,7.51
2023-01-13T10:14:20.621Z,7.53
2023-01-13T10:17:09.494Z,7.55
2023-01-13T10:19:54.973Z,7.56
2023-01-13T10:22:45.366Z,7.58
2023-01-13T10:25:41.280Z,7.59
2023-01-13T10:28:37.263Z,7.58
2023-01-13T10:31:15.427Z,7.59
2023-01-13T10:33:48.723Z,7.61
2023-01-13T10:36:23.417Z,7.66
2023-01-13T10:38:53.538Z,7.70
2023-01-13T10:41:28.945Z,7.72
2023-01-13T10:44:14.505Z,7.75
2023-01-13T10:46:59.473Z,7.77
2023-01-13T10:49:38.055Z,7.79
2023-01-13T10:52:30.358Z,7.85
2023-01-13T10:55:01.647Z,7.89
2023-01-13T10:57:40.592Z,7.90
2023-01-13T11:00:31.639Z,7.90
2023-01-13T11:03:42.055Z,7.88
2023-01-13T11:06:27.517Z,7.86
2023-01-13T11:08:59.797Z,7.87
2023-01-13T11:11:36.815Z,7.86
2023-01-13T11:14:36.943Z,7.86
2023-01-13T11:17:26.569Z,7.85
2023-01-13T11:20:13.056Z,7.86
2023-01-13T11:22:53.364Z,7.87
2023-01-13T11:25:34.149Z,7.85
2023-01-13T11:28:17.738Z,7.83
2023-01-13T11:31:18.453Z,7.83
2023-01-13T11:34:18.533Z,7.82
2023-01-13T11:36:54.922Z,7.82
2023-01-13T11:39:45.920Z,7.83
2023-01-13T11:42:28.421Z,7.84
2023-01-13T11:45:19.835Z,7.84
2023-01-13T11:47:53.356Z,7.85
2023-01-13T11:50:36.987Z,7.89
2023-01-13T11:53:49.257Z,7.93
2023-01-13T11:56:32.802Z,7.99
2023-01-13T11:59:31.152Z,8.04
2023-01-13T12:02:30.909Z,8.08
2023-01-13T12:05:36.427Z,8.11
2023-01-13T12:08:50.001Z,8.10
2023-01-13T12:12:07.426Z,8.12
2023-01-13T12:14:41.103Z,8.13
2023-01-13T12:17:34.855Z,8.15
2023-01-13T12:20:30.795Z,8.23
2023-01-13T12:23:08.793Z,8.35
2023-01-13T12:25:53.541Z,8.45
2023-01-13T12:28:46.736Z,8.47
2023-01-13T12:31:19.491Z,8.46
2023-01-13T12:34:25.971Z,8.47
2023-01-13T12:37:15.754Z,8.53
2023-01-13T12:46:22.029Z,8.49
2023-01-13T12:48:57.375Z,8.45
2023-01-13T12:51:30.268Z,8.41
2023-01-13T12:54:02.189Z,8.36
2023-01-13T12:56:41.052Z,8.32
2023-01-13T12:59:19.323Z,8.30
2023-01-13T13:02:12.037Z,8.28
2023-01-13T13:04:49.880Z,8.27
2023-01-13T13:07:48.000Z,8.26
2023-01-13T13:10:32.164Z,8.26
2023-01-13T13:13:22.800Z,8.26
2023-01-13T13:16:27.278Z,8.27
2023-01-13T13:19:20.241Z,8.27
2023-01-13T13:22:16.513Z,8.25
2023-01-13T13:24:49.653Z,8.22
2023-01-13T13:27:43.231Z,8.20
2023-01-13T13:30:13.215Z,8.19
2023-01-13T13:33:01.090Z,8.19
2023-01-13T13:36:03.040Z,8.18
2023-01-13T13:39:09.022Z,8.17
2023-01-13T13:42:03.622Z,8.15
2023-01-13T13:45:05.267Z,8.12
2023-01-13T13:47:39.945Z,8.09
2023-01-13T13:50:33.540Z,8.07
2023-01-13T13:53:09.019Z,8.06
2023-01-13T13:55:41.591Z,8.04
2023-01-13T13:58:18.337Z,8.01
2023-01-13T14:00:53.680Z,7.97
2023-01-13T14:03:32.097Z,7.94
2023-01-13T14:06:07.495Z,7.91
2023-01-13T14:08:46.724Z,7.88
2023-01-13T14:11:31.906Z,7.86
2023-01-13T14:14:17.690Z,7.84
2023-01-13T14:16:47.275Z,7.82
2023-01-13T14:19:36.881Z,7.80
2023-01-13T14:22:07.357Z,7.78
2023-01-13T14:24:48.655Z,7.77
2023-01-13T14:27:20.277Z,7.76
2023-01-13T14:30:01.742Z,7.75
2023-01-13T14:32:39.042Z,7.75
2023-01-13T14:35:11.563Z,7.74
2023-01-13T14:37:43.194Z,7.73
2023-01-13T14:40:38.590Z,7.72
2023-01-13T14:43:14.368Z,7.72
2023-01-13T14:46:03.502Z,7.72
2023-01-13T14:48:37.620Z,7.72
2023-01-13T14:51:11.921Z,7.71
2023-01-13T14:53:47.657Z,7.71
2023-01-13T14:56:51.526Z,7.70
2023-01-13T14:59:47.880Z,7.71
2023-01-13T15:02:51.462Z,7.70
2023-01-13T15:05:24.773Z,7.70
2023-01-13T15:08:01.030Z,7.70
2023-01-13T15:10:35.492Z,7.70
2023-01-13T15:13:07.695Z,7.70
2023-01-13T15:15:39.493Z,7.70
2023-01-13T15:18:18.352Z,7.70
2023-01-13T15:20:53.993Z,7.69
2023-01-13T15:23:25.116Z,7.68
2023-01-13T15:25:56.106Z,7.68
2023-01-13T15:28:29.199Z,7.67
2023-01-13T15:31:02.089Z,7.65
2023-01-13T15:33:32.453Z,7.65
2023-01-13T15:36:06.626Z,7.63
2023-01-13T15:38:36.507Z,7.63
2023-01-13T15:41:10.824Z,7.62
2023-01-13T15:44:01.169Z,7.62
2023-01-13T15:46:38.436Z,7.61
2023-01-13T15:49:17.754Z,7.61
2023-01-13T15:51:49.896Z,7.61
2023-01-13T15:54:24.953Z,7.60
2023-01-13T15:56:56.372Z,7.61
2023-01-13T15:59:28.877Z,7.61
2023-01-13T16:02:01.685Z,7.63
2023-01-13T16:04:31.786Z,7.64
2023-01-13T16:07:03.548Z,7.66
2023-01-13T16:09:32.941Z,7.65
2023-01-13T16:12:06.568Z,7.63
2023-01-13T16:14:38.164Z,7.63
2023-01-13T16:17:19.133Z,7.62
2023-01-13T16:19:48.951Z,7.62
2023-01-13T16:22:21.832Z,7.62
2023-01-13T16:24:53.339Z,7.62
2023-01-13T16:27:26.213Z,7.61
2023-01-13T16:29:58.730Z,7.61
2023-01-13T16:32:29.095Z,7.61
2023-01-13T16:35:00.747Z,7.60
2023-01-13T16:37:31.647Z,7.60
2023-01-13T16:40:02.359Z,7.61
2023-01-13T16:42:33.022Z,7.60
2023-01-13T16:45:08.825Z,7.60
2023-01-13T16:47:40.220Z,7.59
2023-01-13T16:50:23.430Z,7.57
2023-01-13T16:52:52.948Z,7.56
2023-01-13T16:55:27.570Z,7.57
2023-01-13T16:58:06.986Z,7.57
2023-01-13T17:00:37.451Z,7.58
2023-01-13T17:03:08.105Z,7.58
2023-01-13T17:05:44.270Z,7.58
2023-01-13T17:08:19.043Z,7.55
2023-01-13T17:10:50.662Z,7.53
2023-01-13T17:13:25.068Z,7.51
2023-01-13T17:15:57.316Z,7.49
2023-01-13T17:18:31.806Z,7.47
2023-01-13T17:21:02.945Z,7.46
2023-01-13T17:23:34.191Z,7.46
2023-01-13T17:26:07.400Z,7.48
2023-01-13T17:28:41.448Z,7.48
2023-01-13T17:31:12.687Z,7.49
2023-01-13T17:33:43.637Z,7.51
2023-01-13T17:36:17.102Z,7.52
2023-01-13T17:38:48.589Z,7.53
2023-01-13T17:41:20.847Z,7.54
2023-01-13T17:43:51.446Z,7.55
2023-01-13T17:46:26.374Z,7.56
2023-01-13T17:48:58.336Z,7.57
2023-01-13T17:51:31.585Z,7.59
2023-01-13T17:54:06.607Z,7.60
2023-01-13T17:56:41.792Z,7.64
2023-01-13T18:00:07.273Z,7.66
2023-01-13T18:02:46.619Z,7.69
2023-01-13T18:05:22.636Z,7.69
2023-01-13T18:07:56.872Z,7.68
2023-01-13T18:10:31.160Z,7.63
2023-01-13T18:13:04.761Z,7.56
2023-01-13T18:15:37.124Z,7.47
2023-01-13T18:18:08.810Z,7.40
2023-01-13T18:20:56.873Z,7.35
2023-01-13T18:23:46.607Z,7.31
2023-01-13T18:26:39.577Z,7.31
2023-01-13T18:29:17.860Z,7.31
2023-01-13T18:31:51.149Z,7.32
2023-01-13T18:34:24.742Z,7.32
2023-01-13T18:36:58.322Z,7.35
2023-01-13T18:39:28.854Z,7.38
2023-01-13T18:42:17.282Z,7.39
2023-01-13T18:44:48.718Z,7.40
2023-01-13T18:47:20.885Z,7.41
2023-01-13T18:49:53.411Z,7.40
2023-01-13T18:52:24.875Z,7.38
2023-01-13T18:54:54.791Z,7.36
2023-01-13T18:57:28.180Z,7.33
2023-01-13T19:00:02.099Z,7.29
2023-01-13T19:02:33.818Z,7.24
2023-01-13T19:05:04.873Z,7.21
2023-01-13T19:07:37.510Z,7.19
2023-01-13T19:10:10.073Z,7.17
2023-01-13T19:12:40.951Z,7.14
2023-01-13T19:15:11.183Z,7.07
2023-01-13T19:17:41.493Z,6.99
2023-01-13T19:20:14.297Z,6.91
2023-01-13T19:22:54.656Z,6.81
2023-01-13T19:25:27.143Z,6.74
2023-01-13T19:27:58.203Z,6.69
2023-01-13T19:30:33.302Z,6.64
2023-01-13T19:33:05.084Z,6.60
2023-01-13T19:35:39.439Z,6.55
2023-01-13T19:38:13.240Z,6.51
2023-01-13T19:40:52.796Z,6.49
2023-01-13T19:43:44.241Z,6.44
2023-01-13T19:46:20.989Z,6.40
2023-01-13T19:48:55.665Z,6.38
2023-01-13T19:51:28.095Z,6.36
2023-01-13T19:53:58.618Z,6.34
2023-01-13T19:56:33.241Z,6.32
2023-01-13T19:59:09.155Z,6.30
2023-01-13T20:01:42.748Z,6.27
2023-01-13T20:04:15.267Z,6.24
2023-01-13T20:06:49.040Z,6.21
2023-01-13T20:09:21.453Z,6.19
2023-01-13T20:11:59.107Z,6.18
2023-01-13T20:14:32.684Z,6.13
2023-01-13T20:17:06.303Z,6.10
2023-01-13T20:19:39.928Z,6.06
2023-01-13T20:22:12.450Z,6.01
2023-01-13T20:24:49.157Z,6.01
2023-01-13T20:27:23.409Z,5.98
2023-01-13T20:29:54.862Z,5.96
2023-01-13T20:32:27.890Z,5.95
2023-01-13T20:34:58.533Z,5.90
2023-01-13T20:37:29.989Z,5.86
2023-01-13T20:40:02.917Z,5.83
2023-01-13T20:42:40.808Z,5.79
2023-01-13T20:45:22.621Z,5.76
2023-01-13T20:47:57.335Z,5.76
2023-01-13T20:50:34.569Z,5.76
2023-01-13T20:53:11.076Z,5.74
2023-01-13T20:55:47.983Z,5.71
2023-01-13T20:58:23.129Z,5.68
2023-01-13T21:01:00.070Z,5.66
2023-01-13T21:03:36.002Z,5.64
2023-01-13T21:06:08.082Z,5.61
2023-01-13T21:08:41.653Z,5.59
2023-01-13T21:11:15.298Z,5.56
2023-01-13T21:14:04.289Z,5.53
2023-01-13T21:16:36.273Z,5.53
2023-01-13T21:19:12.689Z,5.52
2023-01-13T21:21:44.419Z,5.48
2023-01-13T21:24:20.689Z,5.46
2023-01-13T21:27:01.322Z,5.42
2023-01-13T21:29:33.088Z,5.41
2023-01-13T21:32:05.421Z,5.39
2023-01-13T21:34:35.827Z,5.37
2023-01-13T21:37:06.471Z,5.35
2023-01-13T21:39:36.921Z,5.33
2023-01-13T21:42:32.060Z,5.32
2023-01-13T21:45:22.454Z,5.29
2023-01-13T21:47:53.860Z,5.27
2023-01-13T21:50:28.749Z,5.24
2023-01-13T21:53:00.533Z,5.21
2023-01-13T21:55:30.078Z,5.16
2023-01-13T21:58:08.971Z,5.11
2023-01-13T22:00:42.958Z,5.07
2023-01-13T22:03:19.243Z,5.03
2023-01-13T22:05:56.723Z,5.00
2023-01-13T22:08:29.789Z,4.98
2023-01-13T22:11:03.490Z,4.97
2023-01-13T22:13:52.658Z,4.95
2023-01-13T22:16:24.315Z,4.93
2023-01-13T22:18:57.061Z,4.90
2023-01-13T22:21:26.349Z,4.90
2023-01-13T22:23:59.736Z,4.90
2023-01-13T22:26:31.086Z,4.89
2023-01-13T22:29:02.758Z,4.88
2023-01-13T22:31:35.935Z,4.88
2023-01-13T22:34:07.658Z,4.86
2023-01-13T22:36:39.320Z,4.86
2023-01-13T22:39:12.714Z,4.89
2023-01-13T22:41:44.060Z,4.91
2023-01-13T22:44:16.367Z,4.94
2023-01-13T22:46:50.086Z,4.94
2023-01-13T22:49:20.660Z,4.96
2023-01-13T22:51:52.535Z,4.97
2023-01-13T22:54:24.855Z,4.97
2023-01-13T22:56:56.025Z,4.95
2023-01-13T23:00:42.830Z,4.91
2023-01-13T23:03:13.898Z,4.89
2023-01-13T23:05:48.866Z,4.85
2023-01-13T23:08:20.648Z,4.82
2023-01-13T23:10:51.056Z,4.80
2023-01-13T23:13:22.554Z,4.77
2023-01-13T23:15:53.207Z,4.75
2023-01-13T23:18:27.715Z,4.74
2023-01-13T23:21:02.511Z,4.72
2023-01-13T23:23:32.992Z,4.71
2023-01-13T23:26:06.689Z,4.72
2023-01-13T23:28:37.731Z,4.72
2023-01-13T23:31:17.934Z,4.71
2023-01-13T23:33:48.690Z,4.71
2023-01-13T23:36:20.966Z,4.71
2023-01-13T23:38:51.676Z,4.70
2023-01-13T23:41:25.045Z,4.69
2023-01-13T23:44:01.310Z,4.69
2023-01-13T23:46:33.922Z,4.67
2023-01-13T23:49:04.280Z,4.65
2023-01-13T23:51:37.529Z,4.64
2023-01-13T23:54:09.317Z,4.64
2023-01-13T23:56:41.849Z,4.63
2023-01-13T23:59:15.022Z,4.63
